Time;durP1;ratioP1;P1;durP2;ratioP2;P2;SDS_P1;SDS_P2;PMS_P1;PMS_P2;Temp;Humidity;BMP_temperature;BMP_pressure;BME280_temperature;BME280_humidity;BME280_pressure;Samples;Min_cycle;Max_cycle;Signal;HPM_P1;HPM_P2
2023/06/20 00:00:15;;;;;;;5.93;2.88;;;20.30;99.90;;;;;;4960303;28;20653;-36
2023/06/20 00:02:41;;;;;;;5.38;3.08;;;20.30;99.90;;;;;;4966565;28;20050;-36
2023/06/20 00:05:07;;;;;;;7.60;2.95;;;20.40;99.90;;;;;;4963225;28;20043;-36
2023/06/20 00:07:33;;;;;;;4.45;3.03;;;20.40;99.90;;;;;;4962407;28;20082;-36
2023/06/20 00:09:59;;;;;;;5.97;3.38;;;20.30;99.90;;;;;;4967526;28;20050;-36
2023/06/20 00:12:24;;;;;;;5.15;2.95;;;20.40;99.90;;;;;;4965121;28;20039;-36
2023/06/20 00:14:50;;;;;;;6.60;3.17;;;20.30;99.90;;;;;;4963216;28;20046;-36
2023/06/20 00:17:16;;;;;;;5.43;2.83;;;20.30;99.90;;;;;;4968689;28;20098;-36
2023/06/20 00:19:41;;;;;;;5.47;3.08;;;20.30;99.90;;;;;;4961252;28;20065;-36
2023/06/20 00:22:07;;;;;;;4.75;2.85;;;20.30;99.90;;;;;;4965946;28;20058;-37
2023/06/20 00:24:33;;;;;;;7.40;3.45;;;20.30;99.90;;;;;;4962569;28;20401;-36
2023/06/20 00:27:02;;;;;;;7.72;3.58;;;20.30;99.90;;;;;;4965903;28;20441;-35
2023/06/20 00:29:28;;;;;;;6.00;3.38;;;20.30;99.90;;;;;;4965786;28;20561;-36
2023/06/20 00:31:54;;;;;;;7.43;3.58;;;20.30;99.90;;;;;;4964981;28;20551;-36
2023/06/20 00:34:20;;;;;;;5.80;3.55;;;20.20;99.90;;;;;;4972311;28;20050;-35
2023/06/20 00:36:46;;;;;;;6.90;3.40;;;20.20;99.90;;;;;;4971965;28;20134;-35
2023/06/20 00:39:11;;;;;;;7.15;3.65;;;20.20;99.90;;;;;;4955450;28;20111;-36
2023/06/20 00:41:38;;;;;;;7.85;3.55;;;20.20;99.90;;;;;;4959176;28;20057;-35
2023/06/20 00:44:05;;;;;;;7.28;4.05;;;20.10;99.90;;;;;;4969287;28;20412;-36
2023/06/20 00:46:40;;;;;;;5.60;3.13;;;20.10;99.90;;;;;;4969943;28;20106;-35
2023/06/20 00:49:07;;;;;;;5.07;3.00;;;20.10;99.90;;;;;;4971384;28;20051;-35
2023/06/20 00:51:34;;;;;;;6.47;3.72;;;20.10;99.90;;;;;;4970648;28;20491;-35
2023/06/20 00:54:01;;;;;;;6.55;3.97;;;20.10;99.90;;;;;;4970422;28;20506;-36
2023/06/20 00:56:27;;;;;;;5.68;3.60;;;20.10;99.90;;;;;;4968494;28;20413;-35
2023/06/20 00:58:53;;;;;;;7.13;3.70;;;20.10;99.90;;;;;;4969587;28;20128;-36
2023/06/20 01:01:21;;;;;;;7.25;3.88;;;20.10;99.90;;;;;;4955625;28;20055;-36
2023/06/20 01:03:49;;;;;;;6.30;3.83;;;20.10;99.90;;;;;;4967756;28;20088;-35
2023/06/20 01:06:34;;;;;;;4.22;3.10;;;20.00;99.90;;;;;;4973720;28;20511;-36
2023/06/20 01:09:25;;;;;;;7.57;3.85;;;20.00;99.90;;;;;;4963052;28;20154;-36
2023/06/20 01:12:05;;;;;;;5.82;4.03;;;20.00;99.90;;;;;;4967811;28;20082;-35
2023/06/20 01:14:39;;;;;;;8.20;3.40;;;20.00;99.90;;;;;;4968044;28;20085;-36
2023/06/20 01:17:31;;;;;;;6.63;3.47;;;20.00;99.90;;;;;;4965217;28;20508;-36
2023/06/20 01:20:12;;;;;;;6.10;3.70;;;20.00;99.90;;;;;;4965749;28;20050;-37
2023/06/20 01:22:49;;;;;;;6.88;3.55;;;20.00;99.90;;;;;;4966059;28;20505;-36
2023/06/20 01:25:40;;;;;;;6.63;3.67;;;20.00;99.90;;;;;;4969116;28;20602;-37
2023/06/20 01:28:27;;;;;;;6.38;3.10;;;20.00;99.90;;;;;;4963132;28;20051;-36
2023/06/20 01:31:05;;;;;;;7.50;3.75;;;20.00;99.90;;;;;;4967536;28;20047;-35
2023/06/20 01:33:35;;;;;;;9.23;4.00;;;20.00;99.90;;;;;;4966834;28;20488;-37
2023/06/20 01:36:03;;;;;;;7.32;3.50;;;20.00;99.90;;;;;;4969162;28;20053;-35
2023/06/20 01:38:30;;;;;;;6.22;3.60;;;19.90;99.90;;;;;;4949722;28;20051;-35
2023/06/20 01:40:58;;;;;;;4.85;2.92;;;20.00;99.90;;;;;;4967370;28;20157;-37
2023/06/20 01:43:27;;;;;;;5.85;3.70;;;20.00;99.90;;;;;;4967813;28;20464;-36
2023/06/20 01:45:55;;;;;;;4.60;2.88;;;20.00;99.90;;;;;;4966001;28;20135;-35
2023/06/20 01:48:23;;;;;;;6.28;3.28;;;19.90;99.90;;;;;;4965816;28;20055;-36
2023/06/20 01:50:52;;;;;;;5.18;3.15;;;19.90;99.90;;;;;;4965794;28;20065;-37
2023/06/20 01:53:20;;;;;;;6.75;3.50;;;19.90;99.90;;;;;;4966295;28;20172;-36
2023/06/20 01:55:47;;;;;;;5.78;2.97;;;19.90;99.90;;;;;;4967057;28;20062;-37
2023/06/20 01:58:14;;;;;;;5.70;3.70;;;19.90;99.90;;;;;;4969023;28;20038;-34
2023/06/20 02:00:41;;;;;;;5.38;3.30;;;19.90;99.90;;;;;;4967709;28;20051;-36
2023/06/20 02:03:09;;;;;;;7.45;3.70;;;19.90;99.90;;;;;;4965251;28;20047;-37
2023/06/20 02:05:36;;;;;;;7.13;3.40;;;19.90;99.90;;;;;;4965875;28;20493;-37
2023/06/20 02:08:03;;;;;;;5.65;3.30;;;19.90;99.90;;;;;;4967550;28;20050;-35
2023/06/20 02:10:29;;;;;;;4.85;3.35;;;19.90;99.90;;;;;;4966840;28;20070;-36
2023/06/20 02:12:56;;;;;;;7.13;3.80;;;19.90;99.90;;;;;;4970489;28;20042;-36
2023/06/20 02:15:25;;;;;;;6.75;3.30;;;19.90;99.90;;;;;;4961911;28;20501;-35
2023/06/20 02:17:51;;;;;;;5.97;4.00;;;19.90;99.90;;;;;;4968117;28;20090;-36
2023/06/20 02:20:16;;;;;;;7.43;3.50;;;19.90;99.90;;;;;;4965559;28;20523;-36
2023/06/20 02:22:45;;;;;;;6.80;4.00;;;19.80;99.90;;;;;;4967499;28;20137;-36
2023/06/20 02:25:17;;;;;;;5.85;3.70;;;19.80;99.90;;;;;;4969393;28;20573;-36
2023/06/20 02:27:43;;;;;;;9.17;4.37;;;19.80;99.90;;;;;;4966350;28;20106;-35
2023/06/20 02:30:10;;;;;;;8.18;4.03;;;19.80;99.90;;;;;;4970748;28;20360;-36
2023/06/20 02:32:39;;;;;;;9.20;4.03;;;19.80;99.90;;;;;;4968498;28;20109;-35
2023/06/20 02:35:07;;;;;;;5.72;3.65;;;19.80;99.90;;;;;;4968429;28;20051;-36
2023/06/20 02:37:34;;;;;;;8.60;4.00;;;19.80;99.90;;;;;;4966374;28;20051;-35
2023/06/20 02:40:00;;;;;;;8.13;4.50;;;19.80;99.90;;;;;;4966639;28;20050;-34
2023/06/20 02:42:26;;;;;;;6.78;4.00;;;19.80;99.90;;;;;;4967806;28;20046;-37
2023/06/20 02:44:51;;;;;;;7.57;4.63;;;19.80;99.90;;;;;;4959891;28;20527;-35
2023/06/20 02:47:23;;;;;;;8.20;4.65;;;19.80;99.90;;;;;;4964940;28;20672;-35
2023/06/20 02:49:57;;;;;;;6.93;3.80;;;19.80;99.90;;;;;;4965908;28;20133;-35
2023/06/20 02:52:42;;;;;;;8.43;4.85;;;19.80;99.90;;;;;;4964159;28;20058;-36
2023/06/20 02:55:34;;;;;;;8.55;4.68;;;19.70;99.90;;;;;;4967885;28;20081;-36
2023/06/20 02:58:06;;;;;;;6.35;4.15;;;19.70;99.90;;;;;;4969191;28;20051;-36
2023/06/20 03:00:34;;;;;;;7.75;4.30;;;19.70;99.90;;;;;;4950794;28;20421;-37
2023/06/20 03:03:13;;;;;;;6.88;4.82;;;19.60;99.90;;;;;;4968241;28;20042;-36
2023/06/20 03:05:43;;;;;;;9.23;4.85;;;19.60;99.90;;;;;;4965701;28;20062;-36
2023/06/20 03:08:14;;;;;;;7.35;4.75;;;19.60;99.90;;;;;;4967643;28;20381;-36
2023/06/20 03:10:42;;;;;;;10.20;5.13;;;19.60;99.90;;;;;;4963550;28;20058;-36
2023/06/20 03:13:07;;;;;;;7.60;5.20;;;19.60;99.90;;;;;;4964977;28;20523;-36
2023/06/20 03:15:33;;;;;;;8.93;5.15;;;19.60;99.90;;;;;;4963487;28;20078;-36
2023/06/20 03:18:00;;;;;;;10.80;5.03;;;19.60;99.90;;;;;;4968942;28;20133;-37
2023/06/20 03:20:28;;;;;;;10.07;5.25;;;19.50;99.90;;;;;;4962869;28;20078;-37
2023/06/20 03:22:54;;;;;;;8.32;4.70;;;19.50;99.90;;;;;;4965993;28;20489;-37
2023/06/20 03:25:20;;;;;;;8.23;5.53;;;19.50;99.90;;;;;;4966123;28;20129;-36
2023/06/20 03:27:46;;;;;;;7.13;4.72;;;19.50;99.90;;;;;;4963858;28;20699;-35
2023/06/20 03:30:13;;;;;;;10.23;5.80;;;19.50;99.90;;;;;;4964796;28;20043;-36
2023/06/20 03:32:40;;;;;;;8.45;5.45;;;19.50;99.90;;;;;;4967901;28;20125;-37
2023/06/20 03:35:06;;;;;;;8.05;5.30;;;19.50;99.90;;;;;;4967442;28;20047;-37
2023/06/20 03:37:32;;;;;;;10.32;6.30;;;19.50;99.90;;;;;;4964033;28;20063;-36
2023/06/20 03:39:58;;;;;;;10.57;6.13;;;19.50;99.90;;;;;;4962797;28;20064;-36
2023/06/20 03:42:23;;;;;;;10.27;6.00;;;19.50;99.90;;;;;;4965326;28;20046;-35
2023/06/20 03:44:49;;;;;;;9.13;5.60;;;19.50;99.90;;;;;;4964974;28;20163;-36
2023/06/20 03:47:14;;;;;;;10.93;6.55;;;19.50;99.90;;;;;;4967608;28;20060;-36
2023/06/20 03:49:41;;;;;;;9.43;6.45;;;19.50;99.90;;;;;;4963927;28;20063;-36
2023/06/20 03:52:07;;;;;;;10.13;6.10;;;19.50;99.90;;;;;;4963475;28;20058;-35
2023/06/20 03:54:34;;;;;;;8.50;6.10;;;19.50;99.90;;;;;;4957407;28;20425;-37
2023/06/20 03:57:03;;;;;;;9.35;6.50;;;19.50;99.90;;;;;;4961211;28;20057;-36
2023/06/20 03:59:29;;;;;;;10.73;6.57;;;19.50;99.90;;;;;;4965856;28;20053;-36
2023/06/20 04:01:55;;;;;;;9.02;6.15;;;19.50;99.90;;;;;;4963792;28;20054;-36
2023/06/20 04:04:21;;;;;;;11.25;5.90;;;19.50;99.90;;;;;;4966059;28;20436;-37
2023/06/20 04:06:49;;;;;;;10.60;6.55;;;19.50;99.90;;;;;;4965402;28;20055;-36
2023/06/20 04:09:17;;;;;;;12.20;7.15;;;19.50;99.90;;;;;;4962815;28;20054;-37
2023/06/20 04:11:43;;;;;;;11.15;6.93;;;19.50;99.90;;;;;;4963272;28;20062;-37
2023/06/20 04:14:09;;;;;;;8.43;5.68;;;19.50;99.90;;;;;;4967455;28;20138;-37
2023/06/20 04:16:36;;;;;;;9.32;6.20;;;19.50;99.90;;;;;;4962607;28;20137;-37
2023/06/20 04:19:02;;;;;;;10.65;6.30;;;19.50;99.90;;;;;;4948873;28;20491;-37
2023/06/20 04:21:28;;;;;;;9.57;6.43;;;19.50;99.90;;;;;;4964902;28;20133;-36
2023/06/20 04:23:53;;;;;;;10.10;6.20;;;19.50;99.90;;;;;;4968550;28;20078;-36
2023/06/20 04:26:19;;;;;;;8.65;6.70;;;19.50;99.90;;;;;;4963827;28;20428;-37
2023/06/20 04:28:45;;;;;;;9.25;6.28;;;19.50;99.90;;;;;;4969078;28;20804;-37
2023/06/20 04:31:11;;;;;;;7.95;5.75;;;19.50;99.90;;;;;;4965634;28;20051;-37
2023/06/20 04:33:43;;;;;;;9.65;5.65;;;19.60;99.90;;;;;;4945653;28;20567;-36
2023/06/20 04:36:12;;;;;;;8.75;6.47;;;19.50;99.90;;;;;;4962460;28;20050;-36
2023/06/20 04:38:42;;;;;;;9.32;6.38;;;19.50;99.90;;;;;;4953803;28;20062;-36
2023/06/20 04:41:08;;;;;;;10.43;6.75;;;19.50;99.90;;;;;;4965074;28;20477;-37
2023/06/20 04:43:34;;;;;;;11.30;6.38;;;19.60;99.90;;;;;;4963481;28;20054;-36
2023/06/20 04:46:00;;;;;;;9.48;6.22;;;19.60;99.90;;;;;;4964240;28;21493;-36
2023/06/20 04:48:29;;;;;;;9.23;6.90;;;19.60;99.90;;;;;;4963212;28;20051;-36
2023/06/20 04:50:56;;;;;;;11.98;6.35;;;19.60;99.90;;;;;;4965300;28;20508;-36
2023/06/20 04:53:26;;;;;;;9.93;6.22;;;19.60;99.90;;;;;;4965021;28;20494;-36
2023/06/20 04:55:52;;;;;;;9.38;6.80;;;19.60;99.90;;;;;;4970835;28;20067;-35
2023/06/20 04:58:18;;;;;;;11.07;6.75;;;19.60;99.90;;;;;;4967460;28;20047;-36
2023/06/20 05:00:44;;;;;;;9.68;5.70;;;19.60;99.90;;;;;;4966646;28;20062;-36
2023/06/20 05:03:09;;;;;;;8.80;5.13;;;19.70;99.90;;;;;;4959157;28;20055;-34
2023/06/20 05:05:35;;;;;;;10.23;6.75;;;19.70;99.90;;;;;;4955529;28;20390;-34
2023/06/20 05:08:00;;;;;;;10.27;6.57;;;19.70;99.90;;;;;;4963510;28;20055;-35
2023/06/20 05:10:26;;;;;;;9.75;6.85;;;19.70;99.90;;;;;;4966408;28;20087;-36
2023/06/20 05:12:52;;;;;;;11.07;6.85;;;19.70;99.90;;;;;;4964656;28;20054;-36
2023/06/20 05:15:23;;;;;;;10.80;6.93;;;19.70;99.90;;;;;;4966558;28;20050;-35
2023/06/20 05:17:53;;;;;;;9.30;6.47;;;19.80;99.90;;;;;;4962296;28;20066;-35
2023/06/20 05:20:19;;;;;;;9.63;6.63;;;19.80;99.90;;;;;;4962982;28;20583;-35
2023/06/20 05:22:45;;;;;;;13.18;7.47;;;19.80;99.90;;;;;;4962234;28;20046;-35
2023/06/20 05:25:12;;;;;;;9.18;6.32;;;19.80;99.90;;;;;;4964200;28;20527;-36
2023/06/20 05:27:38;;;;;;;11.68;6.47;;;19.90;99.90;;;;;;4971470;28;20047;-41
2023/06/20 05:30:05;;;;;;;10.77;6.22;;;19.90;99.90;;;;;;4946058;28;20047;-36
2023/06/20 05:32:30;;;;;;;8.93;6.53;;;19.90;99.90;;;;;;4946502;28;20535;-37
2023/06/20 05:34:56;;;;;;;10.45;6.15;;;20.00;99.90;;;;;;4945650;28;20078;-36
2023/06/20 05:37:22;;;;;;;10.27;6.38;;;20.00;99.90;;;;;;4966304;28;20061;-37
2023/06/20 05:39:47;;;;;;;10.27;6.28;;;20.10;99.90;;;;;;4966513;28;20067;-36
2023/06/20 05:42:13;;;;;;;9.07;5.75;;;20.20;99.90;;;;;;4964023;28;20052;-35
2023/06/20 05:44:39;;;;;;;10.55;6.53;;;20.20;99.90;;;;;;4960211;28;20105;-35
2023/06/20 05:47:05;;;;;;;11.50;6.97;;;20.30;99.90;;;;;;4957484;28;20231;-36
2023/06/20 05:49:31;;;;;;;11.48;6.88;;;20.40;99.90;;;;;;4959758;28;20626;-35
2023/06/20 05:51:57;;;;;;;10.98;6.10;;;20.40;99.90;;;;;;4963889;28;20054;-35
2023/06/20 05:54:23;;;;;;;10.35;6.63;;;20.50;99.90;;;;;;4964651;28;20432;-36
2023/06/20 05:56:50;;;;;;;14.52;7.03;;;20.60;99.90;;;;;;4959944;28;20145;-34
2023/06/20 05:59:16;;;;;;;10.85;6.53;;;20.70;99.90;;;;;;4962382;28;20047;-34
2023/06/20 06:01:41;;;;;;;10.98;6.30;;;20.70;99.90;;;;;;4936813;28;20077;-36
2023/06/20 06:04:07;;;;;;;12.40;7.22;;;20.80;99.90;;;;;;4955001;28;20170;-36
2023/06/20 06:06:33;;;;;;;8.77;6.40;;;20.90;99.90;;;;;;4960872;28;20054;-36
2023/06/20 06:08:59;;;;;;;9.60;6.93;;;21.10;99.90;;;;;;4964107;28;20110;-36
2023/06/20 06:11:27;;;;;;;10.85;6.63;;;21.20;99.90;;;;;;4959492;28;20512;-35
2023/06/20 06:13:53;;;;;;;12.77;7.18;;;21.40;99.90;;;;;;4962561;28;20046;-36
2023/06/20 06:16:19;;;;;;;10.63;6.50;;;21.40;99.90;;;;;;4960064;28;20070;-36
2023/06/20 06:18:44;;;;;;;10.32;6.68;;;21.40;99.90;;;;;;4964692;28;20121;-37
2023/06/20 06:21:10;;;;;;;11.90;7.68;;;21.50;99.90;;;;;;4967251;28;20054;-36
2023/06/20 06:23:36;;;;;;;8.65;6.50;;;21.50;99.90;;;;;;4963124;28;20079;-36
2023/06/20 06:26:02;;;;;;;9.85;6.82;;;21.50;99.90;;;;;;4967798;28;20113;-37
2023/06/20 06:28:29;;;;;;;9.57;6.80;;;21.60;99.90;;;;;;4974563;28;20054;-36
2023/06/20 06:30:58;;;;;;;10.13;7.05;;;21.60;99.90;;;;;;4967242;28;20117;-36
2023/06/20 06:33:24;;;;;;;10.80;7.50;;;21.70;99.90;;;;;;4967919;28;20509;-36
2023/06/20 06:35:50;;;;;;;10.43;7.75;;;21.60;99.90;;;;;;4967169;28;20089;-37
2023/06/20 06:38:17;;;;;;;10.65;6.55;;;21.60;99.90;;;;;;4962161;28;20043;-36
2023/06/20 06:40:46;;;;;;;8.88;6.82;;;21.70;99.90;;;;;;4958028;28;20043;-34
2023/06/20 06:43:12;;;;;;;9.48;6.50;;;21.70;99.90;;;;;;4953794;28;20058;-36
2023/06/20 06:45:38;;;;;;;10.45;7.13;;;21.70;99.90;;;;;;4968701;28;20396;-36
2023/06/20 06:48:04;;;;;;;8.40;5.95;;;21.70;99.90;;;;;;4965858;28;20481;-36
2023/06/20 06:50:30;;;;;;;12.25;7.43;;;21.70;99.90;;;;;;4970262;28;20149;-35
2023/06/20 06:52:55;;;;;;;10.10;7.10;;;21.70;99.90;;;;;;4967578;28;20484;-35
2023/06/20 06:55:21;;;;;;;9.25;7.03;;;21.70;99.90;;;;;;4967787;28;20039;-36
2023/06/20 06:57:46;;;;;;;8.80;6.40;;;21.80;99.90;;;;;;4967125;28;20063;-35
2023/06/20 07:00:14;;;;;;;10.77;6.63;;;21.90;99.90;;;;;;4967049;28;20185;-35
2023/06/20 07:02:41;;;;;;;10.50;6.75;;;21.90;99.90;;;;;;4958721;28;20055;-34
2023/06/20 07:05:08;;;;;;;10.07;6.15;;;22.00;99.90;;;;;;4963288;28;20051;-36
2023/06/20 07:07:33;;;;;;;11.20;6.20;;;22.00;99.90;;;;;;4942246;28;20515;-35
2023/06/20 07:09:59;;;;;;;9.43;6.88;;;22.00;99.90;;;;;;4954886;28;20047;-35
2023/06/20 07:12:24;;;;;;;9.93;6.63;;;22.00;99.90;;;;;;4960146;28;20063;-35
2023/06/20 07:14:52;;;;;;;9.43;6.78;;;22.10;99.90;;;;;;4960964;28;20042;-37
2023/06/20 07:17:18;;;;;;;9.15;6.38;;;22.10;99.90;;;;;;4963884;28;20441;-35
2023/06/20 07:19:44;;;;;;;10.23;6.78;;;22.20;99.90;;;;;;4958998;28;20485;-36
2023/06/20 07:22:09;;;;;;;9.20;6.40;;;22.20;99.90;;;;;;4963621;28;20125;-36
2023/06/20 07:24:35;;;;;;;9.15;6.80;;;22.30;99.90;;;;;;4963999;28;20081;-36
2023/06/20 07:27:01;;;;;;;8.13;6.82;;;22.30;99.90;;;;;;4960752;28;20051;-36
2023/06/20 07:29:26;;;;;;;7.35;6.20;;;22.40;99.90;;;;;;4960831;28;20050;-36
2023/06/20 07:31:52;;;;;;;8.45;6.53;;;22.50;99.90;;;;;;4967555;28;20081;-35
2023/06/20 07:34:18;;;;;;;9.13;6.22;;;22.60;99.90;;;;;;4964250;28;20080;-35
2023/06/20 07:36:43;;;;;;;11.55;7.00;;;22.70;99.90;;;;;;4966221;28;20113;-36
2023/06/20 07:39:09;;;;;;;12.50;7.30;;;22.80;99.90;;;;;;4955978;28;20055;-36
2023/06/20 07:41:35;;;;;;;12.93;6.68;;;22.80;99.90;;;;;;4969422;28;20055;-35
2023/06/20 07:44:00;;;;;;;8.52;6.65;;;22.80;99.90;;;;;;4968026;28;20058;-37
2023/06/20 07:46:26;;;;;;;9.05;6.43;;;22.90;99.90;;;;;;4969960;28;20051;-35
2023/06/20 07:48:52;;;;;;;9.13;6.22;;;22.90;99.90;;;;;;4965588;28;20062;-37
2023/06/20 07:51:17;;;;;;;8.93;6.65;;;23.00;99.90;;;;;;4972223;28;20054;-48
2023/06/20 07:53:43;;;;;;;8.80;6.47;;;23.00;99.90;;;;;;4966387;28;20050;-37
2023/06/20 07:56:09;;;;;;;10.68;7.05;;;23.00;99.90;;;;;;4968950;28;20504;-37
2023/06/20 07:58:34;;;;;;;8.80;6.63;;;23.00;99.90;;;;;;4945396;28;20070;-36
2023/06/20 08:01:00;;;;;;;10.20;6.30;;;23.00;99.90;;;;;;4969898;28;20054;-37
2023/06/20 08:03:26;;;;;;;9.05;6.60;;;23.00;99.90;;;;;;4968889;28;20066;-37
2023/06/20 08:05:52;;;;;;;8.05;6.00;;;23.10;99.90;;;;;;4968714;28;20460;-36
2023/06/20 08:08:18;;;;;;;9.38;6.63;;;23.10;99.90;;;;;;4965732;28;20090;-37
2023/06/20 08:10:43;;;;;;;10.75;6.78;;;23.20;99.90;;;;;;4956180;28;20078;-37
2023/06/20 08:13:09;;;;;;;8.75;6.45;;;23.30;99.90;;;;;;4946166;28;20051;-37
2023/06/20 08:15:35;;;;;;;10.52;6.80;;;23.40;99.90;;;;;;4951139;28;20075;-37
2023/06/20 08:18:00;;;;;;;7.53;5.47;;;23.40;99.90;;;;;;4945956;28;20086;-37
2023/06/20 08:20:26;;;;;;;8.13;6.63;;;23.40;99.90;;;;;;4943974;28;20055;-37
2023/06/20 08:22:51;;;;;;;10.40;6.95;;;23.40;99.90;;;;;;4945867;28;20066;-37
2023/06/20 08:25:17;;;;;;;8.85;6.80;;;23.40;99.90;;;;;;4933200;28;20055;-37
2023/06/20 08:27:43;;;;;;;13.75;6.47;;;23.40;99.90;;;;;;4943858;28;20417;-37
2023/06/20 08:30:09;;;;;;;9.85;6.55;;;23.40;99.90;;;;;;4944515;28;20059;-37
2023/06/20 08:32:38;;;;;;;12.25;7.10;;;23.50;99.90;;;;;;4947040;28;20047;-36
2023/06/20 08:35:04;;;;;;;10.23;6.78;;;23.50;99.90;;;;;;4945085;28;20094;-35
2023/06/20 08:37:30;;;;;;;12.48;6.57;;;23.60;99.90;;;;;;4944062;28;20062;-35
2023/06/20 08:39:56;;;;;;;7.97;6.07;;;23.80;99.90;;;;;;4940957;28;20055;-35
2023/06/20 08:42:21;;;;;;;12.75;6.82;;;24.00;99.90;;;;;;4948173;28;21347;-35
2023/06/20 08:44:47;;;;;;;8.45;6.47;;;24.20;99.90;;;;;;4947786;28;20055;-35
2023/06/20 08:47:13;;;;;;;7.95;6.75;;;24.40;99.90;;;;;;4942081;28;20040;-35
2023/06/20 08:49:40;;;;;;;8.68;6.70;;;24.40;99.90;;;;;;4947823;28;20339;-34
2023/06/20 08:52:13;;;;;;;11.18;6.03;;;24.50;99.90;;;;;;4944783;28;20047;-35
2023/06/20 08:54:42;;;;;;;8.70;6.43;;;24.70;99.90;;;;;;4938645;28;20039;-35
2023/06/20 08:57:08;;;;;;;7.03;5.80;;;24.80;99.90;;;;;;4956467;28;20098;-35
2023/06/20 08:59:35;;;;;;;10.50;6.85;;;25.00;99.90;;;;;;4951465;28;20059;-35
2023/06/20 09:02:01;;;;;;;8.10;6.65;;;25.20;99.90;;;;;;4951535;28;20054;-35
2023/06/20 09:04:29;;;;;;;9.15;6.75;;;25.30;99.90;;;;;;4953112;28;20051;-35
2023/06/20 09:06:56;;;;;;;7.13;5.85;;;25.40;99.90;;;;;;4950649;28;20051;-35
2023/06/20 09:09:21;;;;;;;8.05;6.60;;;25.50;99.90;;;;;;4948198;28;20065;-36
2023/06/20 09:11:57;;;;;;;8.05;6.07;;;25.60;99.90;;;;;;4965660;28;20423;-36
2023/06/20 09:14:27;;;;;;;13.18;6.63;;;25.70;99.90;;;;;;4968428;28;20142;-36
2023/06/20 09:16:53;;;;;;;10.73;6.65;;;25.80;99.90;;;;;;4965121;28;20141;-35
2023/06/20 09:19:19;;;;;;;8.25;6.38;;;25.80;99.90;;;;;;4972294;28;20047;-35
2023/06/20 09:21:44;;;;;;;6.28;4.95;;;25.90;99.90;;;;;;4967850;28;20387;-36
2023/06/20 09:24:10;;;;;;;6.47;5.28;;;26.00;99.90;;;;;;4969080;28;20484;-37
2023/06/20 09:26:35;;;;;;;5.72;4.93;;;26.20;99.90;;;;;;4974028;28;20479;-36
2023/06/20 09:29:19;;;;;;;7.47;5.63;;;26.40;99.90;;;;;;4968360;28;20066;-36
2023/06/20 09:31:48;;;;;;;7.57;6.50;;;26.50;99.90;;;;;;4969434;28;20057;-36
2023/06/20 09:34:19;;;;;;;6.80;5.45;;;26.70;99.90;;;;;;4972768;28;20059;-36
2023/06/20 09:36:47;;;;;;;10.63;5.53;;;26.80;99.90;;;;;;4966700;28;20592;-35
2023/06/20 09:39:17;;;;;;;7.35;5.43;;;26.80;99.90;;;;;;4969633;28;20408;-37
2023/06/20 09:41:49;;;;;;;7.85;6.68;;;27.00;99.90;;;;;;4969763;28;20054;-36
2023/06/20 09:44:15;;;;;;;;;;;27.00;99.90;;;;;;4975691;28;20133;-35
2023/06/20 09:46:41;;;;;;;7.45;5.40;;;27.10;99.90;;;;;;4964753;28;19922;-36
2023/06/20 09:49:07;;;;;;;8.48;6.18;;;27.30;99.90;;;;;;4972225;28;20049;-36
2023/06/20 09:51:50;;;;;;;9.48;5.80;;;27.40;99.90;;;;;;4966700;28;20043;-36
2023/06/20 09:54:47;;;;;;;6.78;5.63;;;27.50;99.90;;;;;;4971786;28;20039;-36
2023/06/20 09:57:19;;;;;;;6.38;5.70;;;27.60;99.90;;;;;;4937936;28;20493;-36
2023/06/20 09:59:46;;;;;;;5.85;4.82;;;27.60;99.90;;;;;;4968783;28;20058;-36
2023/06/20 10:02:13;;;;;;;5.10;4.10;;;27.70;99.90;;;;;;4968637;28;20516;-36
2023/06/20 10:04:42;;;;;;;6.50;3.55;;;27.90;99.90;;;;;;4969631;28;20055;-35
2023/06/20 10:07:14;;;;;;;11.55;4.82;;;28.00;99.90;;;;;;4967322;28;20493;-36
2023/06/20 10:09:43;;;;;;;5.40;3.85;;;28.10;99.90;;;;;;4967079;28;20046;-37
2023/06/20 10:12:10;;;;;;;5.22;3.85;;;28.20;99.90;;;;;;4968623;28;20545;-36
2023/06/20 10:14:37;;;;;;;7.07;3.92;;;28.40;99.90;;;;;;4972325;28;20504;-35
2023/06/20 10:17:11;;;;;;;8.65;3.85;;;28.50;99.90;;;;;;4953593;28;20137;-36
2023/06/20 10:19:51;;;;;;;3.78;2.95;;;28.60;99.90;;;;;;4969455;28;20056;-36
2023/06/20 10:22:41;;;;;;;4.13;3.13;;;28.70;99.90;;;;;;4963590;28;20145;-37
2023/06/20 10:25:14;;;;;;;4.70;3.45;;;28.90;99.90;;;;;;4966185;28;20061;-36
2023/06/20 10:28:03;;;;;;;5.72;4.07;;;28.90;99.90;;;;;;4968289;28;20054;-36
2023/06/20 10:30:50;;;;;;;6.47;3.70;;;29.00;99.90;;;;;;4949440;28;20055;-36
2023/06/20 10:33:37;;;;;;;4.90;3.70;;;29.00;99.90;;;;;;4967413;28;20101;-36
2023/06/20 10:36:06;;;;;;;5.65;4.10;;;29.10;99.90;;;;;;4964208;28;20184;-36
2023/06/20 10:38:37;;;;;;;4.90;3.47;;;29.30;99.90;;;;;;4965578;28;20061;-36
2023/06/20 10:41:10;;;;;;;4.77;2.93;;;29.30;99.90;;;;;;4970549;28;20043;-36
2023/06/20 10:44:00;;;;;;;5.10;4.00;;;29.40;99.90;;;;;;4965647;28;20536;-36
2023/06/20 10:46:41;;;;;;;4.30;3.78;;;29.30;99.90;;;;;;4965027;28;20061;-36
2023/06/20 10:49:09;;;;;;;4.63;3.60;;;29.40;99.90;;;;;;4967217;28;20054;-35
2023/06/20 10:51:53;;;;;;;5.10;3.72;;;29.20;99.90;;;;;;4969672;28;20054;-36
2023/06/20 10:54:21;;;;;;;4.90;3.38;;;29.10;99.90;;;;;;4969869;28;20133;-36
2023/06/20 10:56:47;;;;;;;6.53;3.78;;;29.40;99.90;;;;;;4965029;28;20065;-35
2023/06/20 10:59:15;;;;;;;4.80;3.80;;;29.40;99.90;;;;;;4968866;28;20051;-35
2023/06/20 11:01:41;;;;;;;5.70;4.40;;;29.30;99.90;;;;;;4965306;28;20058;-36
2023/06/20 11:04:08;;;;;;;6.25;3.55;;;29.10;99.90;;;;;;4971051;28;20057;-35
2023/06/20 11:06:33;;;;;;;5.85;4.35;;;29.00;99.90;;;;;;4963866;28;20046;-35
2023/06/20 11:08:59;;;;;;;6.47;4.03;;;28.90;99.90;;;;;;4965328;28;20302;-35
2023/06/20 11:11:38;;;;;;;8.82;3.45;;;29.00;99.90;;;;;;4966438;28;20046;-36
2023/06/20 11:14:19;;;;;;;5.32;3.67;;;29.20;99.90;;;;;;4970900;28;20038;-36
2023/06/20 11:16:46;;;;;;;5.60;2.90;;;29.60;99.90;;;;;;4966391;28;20493;-36
2023/06/20 11:19:14;;;;;;;4.03;2.47;;;30.00;99.90;;;;;;4964937;28;20046;-36
2023/06/20 11:21:40;;;;;;;4.50;3.10;;;30.20;99.90;;;;;;4966122;28;20050;-36
2023/06/20 11:24:06;;;;;;;4.00;2.47;;;30.30;99.90;;;;;;4965599;28;20054;-34
2023/06/20 11:26:33;;;;;;;3.85;2.42;;;30.30;99.90;;;;;;4968457;28;20409;-35
2023/06/20 11:29:03;;;;;;;3.95;2.50;;;30.40;99.90;;;;;;4965219;28;20066;-35
2023/06/20 11:31:29;;;;;;;3.75;2.60;;;30.30;99.90;;;;;;4966075;28;20149;-35
2023/06/20 11:34:08;;;;;;;3.10;2.30;;;30.40;99.90;;;;;;4973655;28;20551;-35
2023/06/20 11:36:36;;;;;;;5.40;2.45;;;30.60;99.90;;;;;;4966190;28;20051;-36
2023/06/20 11:39:11;;;;;;;3.83;2.63;;;30.70;99.90;;;;;;4965320;28;20553;-35
2023/06/20 11:41:37;;;;;;;3.45;2.35;;;30.90;99.90;;;;;;4962296;28;20055;-36
2023/06/20 11:44:04;;;;;;;3.92;2.38;;;31.00;99.90;;;;;;4972728;28;20078;-36
2023/06/20 11:46:29;;;;;;;4.05;2.60;;;30.90;99.90;;;;;;4968098;28;20153;-36
2023/06/20 11:48:59;;;;;;;5.05;3.08;;;30.80;99.90;;;;;;4969201;28;20074;-36
2023/06/20 11:51:26;;;;;;;3.97;2.60;;;30.80;99.90;;;;;;4967450;28;20042;-36
2023/06/20 11:54:07;;;;;;;3.95;2.63;;;30.50;99.90;;;;;;4969000;28;20059;-36
2023/06/20 11:56:32;;;;;;;4.30;2.60;;;30.30;99.90;;;;;;4967527;28;20405;-36
2023/06/20 11:58:58;;;;;;;3.95;2.78;;;30.00;99.90;;;;;;4968575;28;20050;-35
2023/06/20 12:01:25;;;;;;;4.35;2.70;;;29.90;99.90;;;;;;4968203;28;20079;-36
2023/06/20 12:04:12;;;;;;;5.30;2.67;;;29.90;99.90;;;;;;4967814;28;20053;-36
2023/06/20 12:06:39;;;;;;;3.70;2.88;;;29.90;99.90;;;;;;4955268;28;20094;-35
2023/06/20 12:09:09;;;;;;;3.58;2.63;;;29.90;99.90;;;;;;4962250;28;20046;-37
2023/06/20 12:11:45;;;;;;;3.30;2.67;;;30.10;99.90;;;;;;4966361;28;20078;-36
2023/06/20 12:14:10;;;;;;;4.25;2.95;;;30.20;99.90;;;;;;4962330;28;20126;-36
2023/06/20 12:16:36;;;;;;;4.72;2.50;;;30.20;99.90;;;;;;4963455;28;20469;-36
2023/06/20 12:19:02;;;;;;;4.95;3.97;;;30.10;99.90;;;;;;4967549;28;20096;-36
2023/06/20 12:21:27;;;;;;;3.92;2.83;;;30.00;99.90;;;;;;4968378;28;20130;-35
2023/06/20 12:23:53;;;;;;;4.03;2.85;;;30.00;99.90;;;;;;4967653;28;20117;-35
2023/06/20 12:26:19;;;;;;;4.65;3.55;;;30.10;99.90;;;;;;4964994;28;20465;-36
2023/06/20 12:28:45;;;;;;;3.70;3.03;;;30.10;99.90;;;;;;4963587;28;20055;-36
2023/06/20 12:31:12;;;;;;;3.78;2.83;;;30.00;99.90;;;;;;4965106;28;20519;-36
2023/06/20 12:33:37;;;;;;;4.78;2.92;;;30.00;99.90;;;;;;4949895;28;20055;-36
2023/06/20 12:36:04;;;;;;;4.20;3.00;;;30.10;99.90;;;;;;4949048;28;20515;-36
2023/06/20 12:38:30;;;;;;;4.85;3.42;;;30.40;99.90;;;;;;4960042;28;20109;-35
2023/06/20 12:41:00;;;;;;;4.82;3.42;;;30.70;99.90;;;;;;4969827;28;20500;-36
2023/06/20 12:43:25;;;;;;;3.38;2.97;;;31.00;99.90;;;;;;4969724;28;20047;-36
2023/06/20 12:45:52;;;;;;;4.20;3.47;;;31.20;99.90;;;;;;4963778;28;20185;-36
2023/06/20 12:48:18;;;;;;;4.47;3.22;;;31.40;99.90;;;;;;4960900;28;20126;-36
2023/06/20 12:50:44;;;;;;;3.25;2.78;;;31.50;99.90;;;;;;4963700;28;20489;-35